sensor_id;sensor_type;location;lat;lon;timestamp;P1;durP1;ratioP1;P2;durP2;ratioP2
17091;SDS011;8661;45.700;4.880;2023-06-14T00:00:15;5.57;;;3.47;;
17091;SDS011;8661;45.700;4.880;2023-06-14T00:02:42;6.23;;;3.17;;
17091;SDS011;8661;45.700;4.880;2023-06-14T00:05:09;5.77;;;2.93;;
17091;SDS011;8661;45.700;4.880;2023-06-14T00:07:38;5.67;;;3.33;;
17091;SDS011;8661;45.700;4.880;2023-06-14T00:10:07;8.10;;;2.83;;
17091;SDS011;8661;45.700;4.880;2023-06-14T00:12:35;10.27;;;3.20;;
17091;SDS011;8661;45.700;4.880;2023-06-14T00:15:04;5.37;;;2.80;;
17091;SDS011;8661;45.700;4.880;2023-06-14T00:17:32;7.53;;;2.73;;
17091;SDS011;8661;45.700;4.880;2023-06-14T00:19:59;5.90;;;3.07;;
17091;SDS011;8661;45.700;4.880;2023-06-14T00:22:28;7.00;;;3.10;;
17091;SDS011;8661;45.700;4.880;2023-06-14T00:24:56;5.67;;;3.00;;
17091;SDS011;8661;45.700;4.880;2023-06-14T00:27:22;5.47;;;3.10;;
17091;SDS011;8661;45.700;4.880;2023-06-14T00:29:49;5.93;;;2.97;;
17091;SDS011;8661;45.700;4.880;2023-06-14T00:32:18;5.60;;;2.63;;
17091;SDS011;8661;45.700;4.880;2023-06-14T00:34:49;5.37;;;2.87;;
17091;SDS011;8661;45.700;4.880;2023-06-14T00:37:16;10.27;;;3.20;;
17091;SDS011;8661;45.700;4.880;2023-06-14T00:39:43;3.73;;;2.90;;
17091;SDS011;8661;45.700;4.880;2023-06-14T00:42:10;6.43;;;2.80;;
17091;SDS011;8661;45.700;4.880;2023-06-14T00:44:36;4.93;;;2.77;;
17091;SDS011;8661;45.700;4.880;2023-06-14T00:47:04;5.43;;;2.90;;
17091;SDS011;8661;45.700;4.880;2023-06-14T00:49:32;4.60;;;2.80;;
17091;SDS011;8661;45.700;4.880;2023-06-14T00:51:59;8.80;;;2.83;;
17091;SDS011;8661;45.700;4.880;2023-06-14T00:54:27;10.57;;;3.17;;
17091;SDS011;8661;45.700;4.880;2023-06-14T00:56:54;6.10;;;2.97;;
17091;SDS011;8661;45.700;4.880;2023-06-14T00:59:20;8.20;;;3.37;;
17091;SDS011;8661;45.700;4.880;2023-06-14T01:01:47;8.97;;;3.30;;
17091;SDS011;8661;45.700;4.880;2023-06-14T01:04:14;10.67;;;3.77;;
17091;SDS011;8661;45.700;4.880;2023-06-14T01:06:45;10.73;;;3.10;;
17091;SDS011;8661;45.700;4.880;2023-06-14T01:09:29;6.97;;;2.70;;
17091;SDS011;8661;45.700;4.880;2023-06-14T01:12:05;7.40;;;2.70;;
17091;SDS011;8661;45.700;4.880;2023-06-14T01:14:37;13.47;;;3.40;;
17091;SDS011;8661;45.700;4.880;2023-06-14T01:17:05;11.70;;;3.13;;
17091;SDS011;8661;45.700;4.880;2023-06-14T01:19:40;12.73;;;2.63;;
17091;SDS011;8661;45.700;4.880;2023-06-14T01:22:09;6.97;;;2.60;;
17091;SDS011;8661;45.700;4.880;2023-06-14T01:24:37;5.43;;;2.67;;
17091;SDS011;8661;45.700;4.880;2023-06-14T01:27:04;5.47;;;3.00;;
17091;SDS011;8661;45.700;4.880;2023-06-14T01:29:33;5.17;;;2.87;;
17091;SDS011;8661;45.700;4.880;2023-06-14T01:32:01;7.17;;;3.00;;
17091;SDS011;8661;45.700;4.880;2023-06-14T01:34:29;10.83;;;3.10;;
17091;SDS011;8661;45.700;4.880;2023-06-14T01:36:56;5.03;;;2.47;;
17091;SDS011;8661;45.700;4.880;2023-06-14T01:39:24;5.13;;;2.60;;
17091;SDS011;8661;45.700;4.880;2023-06-14T01:41:52;8.37;;;3.23;;
17091;SDS011;8661;45.700;4.880;2023-06-14T01:44:19;4.47;;;2.60;;
17091;SDS011;8661;45.700;4.880;2023-06-14T01:46:46;6.47;;;2.90;;
17091;SDS011;8661;45.700;4.880;2023-06-14T01:49:14;7.27;;;2.73;;
17091;SDS011;8661;45.700;4.880;2023-06-14T01:51:41;14.97;;;3.20;;
17091;SDS011;8661;45.700;4.880;2023-06-14T01:54:08;15.03;;;3.37;;
17091;SDS011;8661;45.700;4.880;2023-06-14T01:56:34;7.03;;;3.10;;
17091;SDS011;8661;45.700;4.880;2023-06-14T01:59:03;6.73;;;2.50;;
17091;SDS011;8661;45.700;4.880;2023-06-14T02:01:30;7.57;;;2.87;;
17091;SDS011;8661;45.700;4.880;2023-06-14T02:03:59;11.80;;;2.63;;
17091;SDS011;8661;45.700;4.880;2023-06-14T02:06:26;5.07;;;2.53;;
17091;SDS011;8661;45.700;4.880;2023-06-14T02:08:53;6.03;;;2.83;;
17091;SDS011;8661;45.700;4.880;2023-06-14T02:11:20;4.20;;;2.60;;
17091;SDS011;8661;45.700;4.880;2023-06-14T02:13:47;5.93;;;2.40;;
17091;SDS011;8661;45.700;4.880;2023-06-14T02:16:15;4.63;;;2.63;;
17091;SDS011;8661;45.700;4.880;2023-06-14T02:18:42;3.87;;;2.60;;
17091;SDS011;8661;45.700;4.880;2023-06-14T02:21:09;4.70;;;2.70;;
17091;SDS011;8661;45.700;4.880;2023-06-14T02:23:36;4.93;;;2.70;;
17091;SDS011;8661;45.700;4.880;2023-06-14T02:26:03;2.93;;;2.47;;
17091;SDS011;8661;45.700;4.880;2023-06-14T02:28:30;8.90;;;2.47;;
17091;SDS011;8661;45.700;4.880;2023-06-14T02:30:57;6.80;;;2.60;;
17091;SDS011;8661;45.700;4.880;2023-06-14T02:33:25;3.77;;;2.30;;
17091;SDS011;8661;45.700;4.880;2023-06-14T02:35:52;5.13;;;2.67;;
17091;SDS011;8661;45.700;4.880;2023-06-14T02:38:19;5.03;;;2.77;;
17091;SDS011;8661;45.700;4.880;2023-06-14T02:40:46;5.20;;;2.57;;
17091;SDS011;8661;45.700;4.880;2023-06-14T02:43:13;5.37;;;2.57;;
17091;SDS011;8661;45.700;4.880;2023-06-14T02:45:40;7.67;;;2.83;;
17091;SDS011;8661;45.700;4.880;2023-06-14T02:48:07;2.80;;;2.37;;
17091;SDS011;8661;45.700;4.880;2023-06-14T02:50:35;4.70;;;2.77;;
17091;SDS011;8661;45.700;4.880;2023-06-14T02:53:02;2.80;;;2.43;;
17091;SDS011;8661;45.700;4.880;2023-06-14T02:55:29;8.00;;;2.90;;
17091;SDS011;8661;45.700;4.880;2023-06-14T02:57:55;5.47;;;2.87;;
17091;SDS011;8661;45.700;4.880;2023-06-14T03:00:22;5.50;;;2.77;;
17091;SDS011;8661;45.700;4.880;2023-06-14T03:02:49;5.50;;;2.70;;
17091;SDS011;8661;45.700;4.880;2023-06-14T03:05:17;9.00;;;3.07;;
17091;SDS011;8661;45.700;4.880;2023-06-14T03:07:47;4.60;;;2.80;;
17091;SDS011;8661;45.700;4.880;2023-06-14T03:10:15;6.50;;;3.17;;
17091;SDS011;8661;45.700;4.880;2023-06-14T03:12:42;3.33;;;2.63;;
17091;SDS011;8661;45.700;4.880;2023-06-14T03:15:09;5.20;;;2.50;;
17091;SDS011;8661;45.700;4.880;2023-06-14T03:17:38;5.90;;;2.77;;
17091;SDS011;8661;45.700;4.880;2023-06-14T03:20:06;6.07;;;2.80;;
17091;SDS011;8661;45.700;4.880;2023-06-14T03:22:34;5.07;;;3.00;;
17091;SDS011;8661;45.700;4.880;2023-06-14T03:25:02;5.30;;;2.73;;
17091;SDS011;8661;45.700;4.880;2023-06-14T03:27:30;2.63;;;2.33;;
17091;SDS011;8661;45.700;4.880;2023-06-14T03:29:57;5.83;;;2.93;;
17091;SDS011;8661;45.700;4.880;2023-06-14T03:32:24;4.73;;;2.70;;
17091;SDS011;8661;45.700;4.880;2023-06-14T03:34:51;4.97;;;2.53;;
17091;SDS011;8661;45.700;4.880;2023-06-14T03:37:19;9.93;;;3.40;;
17091;SDS011;8661;45.700;4.880;2023-06-14T03:39:45;6.30;;;2.80;;
17091;SDS011;8661;45.700;4.880;2023-06-14T03:42:14;4.90;;;3.20;;
17091;SDS011;8661;45.700;4.880;2023-06-14T03:44:41;6.57;;;2.70;;
17091;SDS011;8661;45.700;4.880;2023-06-14T03:47:08;8.53;;;3.40;;
17091;SDS011;8661;45.700;4.880;2023-06-14T03:49:35;4.73;;;2.87;;
17091;SDS011;8661;45.700;4.880;2023-06-14T03:52:02;3.63;;;3.13;;
17091;SDS011;8661;45.700;4.880;2023-06-14T03:54:29;5.07;;;3.67;;
17091;SDS011;8661;45.700;4.880;2023-06-14T03:56:57;6.63;;;2.80;;
17091;SDS011;8661;45.700;4.880;2023-06-14T03:59:26;5.33;;;3.17;;
17091;SDS011;8661;45.700;4.880;2023-06-14T04:01:53;4.47;;;3.30;;
17091;SDS011;8661;45.700;4.880;2023-06-14T04:04:20;3.50;;;3.10;;
17091;SDS011;8661;45.700;4.880;2023-06-14T04:06:53;5.75;;;3.40;;
17091;SDS011;8661;45.700;4.880;2023-06-14T04:09:21;7.60;;;3.37;;
17091;SDS011;8661;45.700;4.880;2023-06-14T04:11:49;4.47;;;2.83;;
17091;SDS011;8661;45.700;4.880;2023-06-14T04:14:17;4.70;;;3.00;;
17091;SDS011;8661;45.700;4.880;2023-06-14T04:16:45;6.13;;;3.63;;
17091;SDS011;8661;45.700;4.880;2023-06-14T04:19:12;7.03;;;4.10;;
17091;SDS011;8661;45.700;4.880;2023-06-14T04:21:39;7.23;;;3.20;;
17091;SDS011;8661;45.700;4.880;2023-06-14T04:24:06;4.67;;;3.30;;
17091;SDS011;8661;45.700;4.880;2023-06-14T04:26:38;6.30;;;3.60;;
17091;SDS011;8661;45.700;4.880;2023-06-14T04:29:05;5.40;;;3.90;;
17091;SDS011;8661;45.700;4.880;2023-06-14T04:31:32;7.10;;;4.87;;
17091;SDS011;8661;45.700;4.880;2023-06-14T04:34:03;6.37;;;4.20;;
17091;SDS011;8661;45.700;4.880;2023-06-14T04:36:31;10.30;;;5.00;;
17091;SDS011;8661;45.700;4.880;2023-06-14T04:38:59;7.63;;;4.37;;
17091;SDS011;8661;45.700;4.880;2023-06-14T04:41:28;13.90;;;4.37;;
17091;SDS011;8661;45.700;4.880;2023-06-14T04:43:55;8.17;;;4.53;;
17091;SDS011;8661;45.700;4.880;2023-06-14T04:46:23;11.63;;;5.00;;
17091;SDS011;8661;45.700;4.880;2023-06-14T04:48:52;9.30;;;5.70;;
17091;SDS011;8661;45.700;4.880;2023-06-14T04:51:20;9.87;;;5.43;;
17091;SDS011;8661;45.700;4.880;2023-06-14T04:53:54;8.77;;;5.47;;
17091;SDS011;8661;45.700;4.880;2023-06-14T04:56:23;8.77;;;5.63;;
17091;SDS011;8661;45.700;4.880;2023-06-14T04:58:51;9.20;;;5.77;;
17091;SDS011;8661;45.700;4.880;2023-06-14T05:01:18;21.07;;;11.53;;
17091;SDS011;8661;45.700;4.880;2023-06-14T05:03:46;10.30;;;6.40;;
17091;SDS011;8661;45.700;4.880;2023-06-14T05:06:13;9.13;;;6.33;;
17091;SDS011;8661;45.700;4.880;2023-06-14T05:08:42;10.40;;;6.13;;
17091;SDS011;8661;45.700;4.880;2023-06-14T05:11:09;13.40;;;6.73;;
17091;SDS011;8661;45.700;4.880;2023-06-14T05:13:36;11.47;;;6.43;;
17091;SDS011;8661;45.700;4.880;2023-06-14T05:16:03;12.87;;;6.23;;
17091;SDS011;8661;45.700;4.880;2023-06-14T05:18:30;11.33;;;6.53;;
17091;SDS011;8661;45.700;4.880;2023-06-14T05:20:59;9.50;;;6.50;;
17091;SDS011;8661;45.700;4.880;2023-06-14T05:23:26;13.63;;;7.50;;
17091;SDS011;8661;45.700;4.880;2023-06-14T05:25:54;9.80;;;6.43;;
17091;SDS011;8661;45.700;4.880;2023-06-14T05:28:21;12.43;;;7.30;;
17091;SDS011;8661;45.700;4.880;2023-06-14T05:30:48;15.43;;;7.67;;
17091;SDS011;8661;45.700;4.880;2023-06-14T05:33:15;11.57;;;6.80;;
17091;SDS011;8661;45.700;4.880;2023-06-14T05:35:42;9.67;;;7.13;;
17091;SDS011;8661;45.700;4.880;2023-06-14T05:38:10;12.83;;;7.20;;
17091;SDS011;8661;45.700;4.880;2023-06-14T05:40:37;13.37;;;7.80;;
17091;SDS011;8661;45.700;4.880;2023-06-14T05:43:05;12.10;;;6.67;;
17091;SDS011;8661;45.700;4.880;2023-06-14T05:45:32;18.47;;;7.00;;
17091;SDS011;8661;45.700;4.880;2023-06-14T05:47:59;9.70;;;6.50;;
17091;SDS011;8661;45.700;4.880;2023-06-14T05:50:25;15.60;;;7.67;;
17091;SDS011;8661;45.700;4.880;2023-06-14T05:52:53;9.33;;;7.20;;
17091;SDS011;8661;45.700;4.880;2023-06-14T05:55:20;17.73;;;7.87;;
17091;SDS011;8661;45.700;4.880;2023-06-14T05:57:46;11.63;;;7.80;;
17091;SDS011;8661;45.700;4.880;2023-06-14T06:00:16;12.97;;;8.57;;
17091;SDS011;8661;45.700;4.880;2023-06-14T06:02:44;12.70;;;7.83;;
17091;SDS011;8661;45.700;4.880;2023-06-14T06:05:12;10.00;;;8.20;;
17091;SDS011;8661;45.700;4.880;2023-06-14T06:07:40;14.93;;;7.77;;
17091;SDS011;8661;45.700;4.880;2023-06-14T06:10:09;12.87;;;7.57;;
17091;SDS011;8661;45.700;4.880;2023-06-14T06:12:36;10.97;;;8.10;;
17091;SDS011;8661;45.700;4.880;2023-06-14T06:15:04;10.87;;;8.50;;
17091;SDS011;8661;45.700;4.880;2023-06-14T06:17:34;11.93;;;7.80;;
17091;SDS011;8661;45.700;4.880;2023-06-14T06:20:01;12.30;;;7.20;;
17091;SDS011;8661;45.700;4.880;2023-06-14T06:22:28;9.10;;;7.33;;
17091;SDS011;8661;45.700;4.880;2023-06-14T06:24:55;10.33;;;7.20;;
17091;SDS011;8661;45.700;4.880;2023-06-14T06:27:22;11.80;;;8.10;;
17091;SDS011;8661;45.700;4.880;2023-06-14T06:29:49;12.97;;;7.33;;
17091;SDS011;8661;45.700;4.880;2023-06-14T06:32:16;11.63;;;6.80;;
17091;SDS011;8661;45.700;4.880;2023-06-14T06:34:45;10.13;;;6.70;;
17091;SDS011;8661;45.700;4.880;2023-06-14T06:37:11;11.53;;;6.23;;
17091;SDS011;8661;45.700;4.880;2023-06-14T06:39:39;12.30;;;5.93;;
17091;SDS011;8661;45.700;4.880;2023-06-14T06:42:06;7.87;;;5.43;;
17091;SDS011;8661;45.700;4.880;2023-06-14T06:44:33;11.73;;;6.17;;
17091;SDS011;8661;45.700;4.880;2023-06-14T06:47:00;10.50;;;5.57;;
17091;SDS011;8661;45.700;4.880;2023-06-14T06:49:27;10.90;;;6.17;;
17091;SDS011;8661;45.700;4.880;2023-06-14T06:52:02;11.30;;;6.20;;
17091;SDS011;8661;45.700;4.880;2023-06-14T06:54:29;11.43;;;4.63;;
17091;SDS011;8661;45.700;4.880;2023-06-14T06:56:57;8.50;;;5.30;;
17091;SDS011;8661;45.700;4.880;2023-06-14T06:59:24;8.07;;;5.73;;
17091;SDS011;8661;45.700;4.880;2023-06-14T07:01:51;9.97;;;5.30;;
17091;SDS011;8661;45.700;4.880;2023-06-14T07:04:18;5.77;;;4.33;;
17091;SDS011;8661;45.700;4.880;2023-06-14T07:06:45;13.47;;;5.23;;
17091;SDS011;8661;45.700;4.880;2023-06-14T07:09:14;8.30;;;4.63;;
17091;SDS011;8661;45.700;4.880;2023-06-14T07:11:42;7.20;;;4.37;;
17091;SDS011;8661;45.700;4.880;2023-06-14T07:14:10;8.17;;;5.10;;
17091;SDS011;8661;45.700;4.880;2023-06-14T07:16:37;7.33;;;5.10;;
17091;SDS011;8661;45.700;4.880;2023-06-14T07:19:04;6.10;;;4.50;;
17091;SDS011;8661;45.700;4.880;2023-06-14T07:21:31;6.57;;;4.60;;
17091;SDS011;8661;45.700;4.880;2023-06-14T07:23:57;7.77;;;4.60;;
17091;SDS011;8661;45.700;4.880;2023-06-14T07:26:26;7.20;;;4.33;;
17091;SDS011;8661;45.700;4.880;2023-06-14T07:28:53;8.83;;;4.33;;
17091;SDS011;8661;45.700;4.880;2023-06-14T07:31:19;5.70;;;4.43;;
17091;SDS011;8661;45.700;4.880;2023-06-14T07:33:46;9.63;;;4.00;;
17091;SDS011;8661;45.700;4.880;2023-06-14T07:36:13;8.27;;;4.10;;
17091;SDS011;8661;45.700;4.880;2023-06-14T07:38:40;17.30;;;4.73;;
17091;SDS011;8661;45.700;4.880;2023-06-14T07:41:07;6.20;;;4.07;;
17091;SDS011;8661;45.700;4.880;2023-06-14T07:43:35;8.47;;;3.77;;
17091;SDS011;8661;45.700;4.880;2023-06-14T07:46:02;8.30;;;3.80;;
17091;SDS011;8661;45.700;4.880;2023-06-14T07:48:29;5.87;;;4.00;;
17091;SDS011;8661;45.700;4.880;2023-06-14T07:50:56;5.30;;;3.97;;
17091;SDS011;8661;45.700;4.880;2023-06-14T07:53:23;6.80;;;4.07;;
17091;SDS011;8661;45.700;4.880;2023-06-14T07:55:49;5.57;;;3.47;;
17091;SDS011;8661;45.700;4.880;2023-06-14T07:58:16;8.60;;;3.60;;
17091;SDS011;8661;45.700;4.880;2023-06-14T08:00:45;9.80;;;3.87;;
17091;SDS011;8661;45.700;4.880;2023-06-14T08:03:12;6.70;;;3.90;;
17091;SDS011;8661;45.700;4.880;2023-06-14T08:05:39;8.43;;;4.03;;
17091;SDS011;8661;45.700;4.880;2023-06-14T08:08:06;6.60;;;4.17;;
17091;SDS011;8661;45.700;4.880;2023-06-14T08:10:32;8.67;;;4.27;;
17091;SDS011;8661;45.700;4.880;2023-06-14T08:12:59;6.03;;;3.83;;
17091;SDS011;8661;45.700;4.880;2023-06-14T08:15:26;10.13;;;4.57;;
17091;SDS011;8661;45.700;4.880;2023-06-14T08:17:54;7.33;;;4.30;;
17091;SDS011;8661;45.700;4.880;2023-06-14T08:20:21;6.50;;;4.23;;
17091;SDS011;8661;45.700;4.880;2023-06-14T08:22:49;8.63;;;4.33;;
17091;SDS011;8661;45.700;4.880;2023-06-14T08:25:20;7.10;;;4.43;;
17091;SDS011;8661;45.700;4.880;2023-06-14T08:27:47;11.37;;;4.40;;
17091;SDS011;8661;45.700;4.880;2023-06-14T08:30:14;6.10;;;4.50;;
17091;SDS011;8661;45.700;4.880;2023-06-14T08:32:42;14.60;;;5.17;;
17091;SDS011;8661;45.700;4.880;2023-06-14T08:35:10;6.50;;;4.73;;
17091;SDS011;8661;45.700;4.880;2023-06-14T08:37:38;8.35;;;4.88;;
17091;SDS011;8661;45.700;4.880;2023-06-14T08:40:07;7.30;;;4.37;;
17091;SDS011;8661;45.700;4.880;2023-06-14T08:42:45;7.18;;;4.45;;
17091;SDS011;8661;45.700;4.880;2023-06-14T08:45:13;7.43;;;4.63;;
17091;SDS011;8661;45.700;4.880;2023-06-14T08:47:40;7.05;;;3.85;;
17091;SDS011;8661;45.700;4.880;2023-06-14T08:50:07;6.68;;;4.65;;
17091;SDS011;8661;45.700;4.880;2023-06-14T08:52:37;7.15;;;4.25;;
17091;SDS011;8661;45.700;4.880;2023-06-14T08:55:11;11.13;;;4.80;;
17091;SDS011;8661;45.700;4.880;2023-06-14T08:57:38;7.78;;;4.28;;
17091;SDS011;8661;45.700;4.880;2023-06-14T09:00:07;7.15;;;4.63;;
17091;SDS011;8661;45.700;4.880;2023-06-14T09:02:38;4.95;;;4.45;;
17091;SDS011;8661;45.700;4.880;2023-06-14T09:05:08;6.50;;;4.07;;
17091;SDS011;8661;45.700;4.880;2023-06-14T09:07:37;7.72;;;4.45;;
17091;SDS011;8661;45.700;4.880;2023-06-14T09:10:06;6.22;;;4.40;;
17091;SDS011;8661;45.700;4.880;2023-06-14T09:12:35;9.48;;;4.72;;
17091;SDS011;8661;45.700;4.880;2023-06-14T09:15:02;9.02;;;5.05;;
17091;SDS011;8661;45.700;4.880;2023-06-14T09:17:32;8.70;;;4.50;;
17091;SDS011;8661;45.700;4.880;2023-06-14T09:20:00;11.43;;;4.75;;
17091;SDS011;8661;45.700;4.880;2023-06-14T09:22:30;8.63;;;4.60;;
17091;SDS011;8661;45.700;4.880;2023-06-14T09:24:58;9.68;;;3.58;;
17091;SDS011;8661;45.700;4.880;2023-06-14T09:27:25;8.15;;;3.97;;
17091;SDS011;8661;45.700;4.880;2023-06-14T09:29:52;7.05;;;4.65;;
17091;SDS011;8661;45.700;4.880;2023-06-14T09:32:20;6.20;;;4.15;;
17091;SDS011;8661;45.700;4.880;2023-06-14T09:34:47;4.72;;;4.20;;
17091;SDS011;8661;45.700;4.880;2023-06-14T09:37:25;5.65;;;3.88;;
17091;SDS011;8661;45.700;4.880;2023-06-14T09:39:54;6.72;;;4.05;;
17091;SDS011;8661;45.700;4.880;2023-06-14T09:42:22;5.53;;;3.78;;
17091;SDS011;8661;45.700;4.880;2023-06-14T09:44:51;7.60;;;3.80;;
17091;SDS011;8661;45.700;4.880;2023-06-14T09:47:20;7.45;;;3.33;;
17091;SDS011;8661;45.700;4.880;2023-06-14T09:49:47;6.88;;;4.00;;
17091;SDS011;8661;45.700;4.880;2023-06-14T09:52:17;5.43;;;3.90;;
17091;SDS011;8661;45.700;4.880;2023-06-14T09:54:45;5.57;;;3.88;;
17091;SDS011;8661;45.700;4.880;2023-06-14T09:57:13;6.30;;;4.05;;
17091;SDS011;8661;45.700;4.880;2023-06-14T09:59:43;5.60;;;3.58;;
17091;SDS011;8661;45.700;4.880;2023-06-14T10:02:14;4.55;;;3.40;;
17091;SDS011;8661;45.700;4.880;2023-06-14T10:04:50;4.00;;;3.60;;
17091;SDS011;8661;45.700;4.880;2023-06-14T10:07:25;8.27;;;4.03;;
17091;SDS011;8661;45.700;4.880;2023-06-14T10:09:55;5.32;;;4.30;;
17091;SDS011;8661;45.700;4.880;2023-06-14T10:12:23;6.75;;;4.30;;
17091;SDS011;8661;45.700;4.880;2023-06-14T10:14:52;5.25;;;3.72;;
17091;SDS011;8661;45.700;4.880;2023-06-14T10:17:21;7.90;;;4.30;;
17091;SDS011;8661;45.700;4.880;2023-06-14T10:19:54;5.95;;;3.90;;
17091;SDS011;8661;45.700;4.880;2023-06-14T10:22:32;11.45;;;4.60;;
17091;SDS011;8661;45.700;4.880;2023-06-14T10:25:06;8.95;;;4.10;;
17091;SDS011;8661;45.700;4.880;2023-06-14T10:27:37;5.00;;;4.47;;
17091;SDS011;8661;45.700;4.880;2023-06-14T10:30:08;4.63;;;3.90;;
17091;SDS011;8661;45.700;4.880;2023-06-14T10:32:36;7.75;;;4.03;;
17091;SDS011;8661;45.700;4.880;2023-06-14T10:35:29;4.93;;;3.67;;
17091;SDS011;8661;45.700;4.880;2023-06-14T10:38:05;6.05;;;4.07;;
17091;SDS011;8661;45.700;4.880;2023-06-14T10:40:33;6.90;;;4.57;;
17091;SDS011;8661;45.700;4.880;2023-06-14T10:43:06;7.03;;;4.05;;
17091;SDS011;8661;45.700;4.880;2023-06-14T10:48:48;4.63;;;3.58;;
17091;SDS011;8661;45.700;4.880;2023-06-14T10:51:15;5.82;;;4.20;;
17091;SDS011;8661;45.700;4.880;2023-06-14T10:53:47;8.95;;;4.50;;
17091;SDS011;8661;45.700;4.880;2023-06-14T10:56:28;5.03;;;3.70;;
17091;SDS011;8661;45.700;4.880;2023-06-14T10:58:56;5.90;;;4.20;;
17091;SDS011;8661;45.700;4.880;2023-06-14T11:01:31;7.32;;;4.28;;
17091;SDS011;8661;45.700;4.880;2023-06-14T11:04:08;4.50;;;3.95;;
17091;SDS011;8661;45.700;4.880;2023-06-14T11:06:45;4.70;;;3.70;;
17091;SDS011;8661;45.700;4.880;2023-06-14T11:12:16;6.07;;;3.72;;
17091;SDS011;8661;45.700;4.880;2023-06-14T11:14:45;4.72;;;4.13;;
17091;SDS011;8661;45.700;4.880;2023-06-14T11:17:14;5.78;;;3.60;;
17091;SDS011;8661;45.700;4.880;2023-06-14T11:19:41;5.97;;;3.67;;
17091;SDS011;8661;45.700;4.880;2023-06-14T11:22:07;5.28;;;3.83;;
17091;SDS011;8661;45.700;4.880;2023-06-14T11:24:34;5.63;;;3.88;;
17091;SDS011;8661;45.700;4.880;2023-06-14T11:27:01;5.53;;;4.03;;
17091;SDS011;8661;45.700;4.880;2023-06-14T11:29:29;5.47;;;3.70;;
17091;SDS011;8661;45.700;4.880;2023-06-14T11:31:57;5.30;;;3.45;;
17091;SDS011;8661;45.700;4.880;2023-06-14T11:34:26;7.40;;;4.00;;
17091;SDS011;8661;45.700;4.880;2023-06-14T11:36:53;6.93;;;3.95;;
17091;SDS011;8661;45.700;4.880;2023-06-14T11:39:23;5.07;;;3.58;;
17091;SDS011;8661;45.700;4.880;2023-06-14T11:41:51;4.45;;;3.30;;
17091;SDS011;8661;45.700;4.880;2023-06-14T11:44:18;5.72;;;3.58;;
17091;SDS011;8661;45.700;4.880;2023-06-14T11:46:45;8.98;;;3.55;;
17091;SDS011;8661;45.700;4.880;2023-06-14T11:49:12;3.75;;;3.45;;
17091;SDS011;8661;45.700;4.880;2023-06-14T11:51:40;5.90;;;3.40;;
17091;SDS011;8661;45.700;4.880;2023-06-14T11:54:09;8.98;;;3.85;;
17091;SDS011;8661;45.700;4.880;2023-06-14T11:56:36;4.28;;;3.63;;
17091;SDS011;8661;45.700;4.880;2023-06-14T11:59:04;4.70;;;3.85;;
17091;SDS011;8661;45.700;4.880;2023-06-14T12:01:32;4.50;;;3.20;;
17091;SDS011;8661;45.700;4.880;2023-06-14T12:04:03;4.80;;;3.63;;
17091;SDS011;8661;45.700;4.880;2023-06-14T12:06:30;6.10;;;3.83;;
17091;SDS011;8661;45.700;4.880;2023-06-14T12:09:07;9.20;;;3.50;;
17091;SDS011;8661;45.700;4.880;2023-06-14T12:11:38;3.83;;;3.33;;
17091;SDS011;8661;45.700;4.880;2023-06-14T12:14:05;4.25;;;3.40;;
17091;SDS011;8661;45.700;4.880;2023-06-14T12:16:34;4.63;;;3.58;;
17091;SDS011;8661;45.700;4.880;2023-06-14T12:19:11;4.10;;;3.33;;
17091;SDS011;8661;45.700;4.880;2023-06-14T12:21:39;11.35;;;4.10;;
17091;SDS011;8661;45.700;4.880;2023-06-14T12:24:08;7.25;;;3.97;;
17091;SDS011;8661;45.700;4.880;2023-06-14T12:26:37;4.70;;;3.60;;
17091;SDS011;8661;45.700;4.880;2023-06-14T12:29:05;5.65;;;4.20;;
17091;SDS011;8661;45.700;4.880;2023-06-14T12:31:33;4.55;;;3.85;;
17091;SDS011;8661;45.700;4.880;2023-06-14T12:34:00;4.50;;;3.78;;
17091;SDS011;8661;45.700;4.880;2023-06-14T12:36:27;4.07;;;3.67;;
17091;SDS011;8661;45.700;4.880;2023-06-14T12:38:54;14.45;;;4.20;;
17091;SDS011;8661;45.700;4.880;2023-06-14T12:41:23;9.30;;;4.05;;
17091;SDS011;8661;45.700;4.880;2023-06-14T12:43:51;6.28;;;3.75;;
17091;SDS011;8661;45.700;4.880;2023-06-14T12:46:18;9.07;;;3.50;;
17091;SDS011;8661;45.700;4.880;2023-06-14T12:48:46;13.93;;;4.22;;
17091;SDS011;8661;45.700;4.880;2023-06-14T12:51:12;8.95;;;3.83;;
17091;SDS011;8661;45.700;4.880;2023-06-14T12:53:39;10.50;;;3.90;;
17091;SDS011;8661;45.700;4.880;2023-06-14T12:56:06;3.28;;;2.80;;
17091;SDS011;8661;45.700;4.880;2023-06-14T12:58:35;5.18;;;3.58;;
17091;SDS011;8661;45.700;4.880;2023-06-14T13:01:01;3.83;;;3.20;;
17091;SDS011;8661;45.700;4.880;2023-06-14T13:03:28;7.00;;;3.53;;
17091;SDS011;8661;45.700;4.880;2023-06-14T13:05:55;16.60;;;4.43;;
17091;SDS011;8661;45.700;4.880;2023-06-14T13:08:22;25.20;;;4.20;;
17091;SDS011;8661;45.700;4.880;2023-06-14T13:10:49;5.20;;;3.60;;
17091;SDS011;8661;45.700;4.880;2023-06-14T13:13:16;6.18;;;3.70;;
17091;SDS011;8661;45.700;4.880;2023-06-14T13:15:44;13.60;;;4.03;;
17091;SDS011;8661;45.700;4.880;2023-06-14T13:18:11;10.45;;;3.50;;
17091;SDS011;8661;45.700;4.880;2023-06-14T13:20:39;13.63;;;4.30;;
17091;SDS011;8661;45.700;4.880;2023-06-14T13:23:05;10.25;;;3.92;;
17091;SDS011;8661;45.700;4.880;2023-06-14T13:25:33;7.88;;;3.33;;
17091;SDS011;8661;45.700;4.880;2023-06-14T13:28:00;12.48;;;3.90;;
17091;SDS011;8661;45.700;4.880;2023-06-14T13:30:27;5.95;;;3.45;;
17091;SDS011;8661;45.700;4.880;2023-06-14T13:32:55;7.03;;;3.95;;
17091;SDS011;8661;45.700;4.880;2023-06-14T13:35:22;16.05;;;4.03;;
17091;SDS011;8661;45.700;4.880;2023-06-14T13:37:49;8.68;;;3.67;;
17091;SDS011;8661;45.700;4.880;2023-06-14T13:40:16;7.20;;;3.70;;
17091;SDS011;8661;45.700;4.880;2023-06-14T13:42:44;9.98;;;3.92;;
17091;SDS011;8661;45.700;4.880;2023-06-14T13:45:12;11.23;;;4.20;;
17091;SDS011;8661;45.700;4.880;2023-06-14T13:47:39;8.63;;;4.25;;
17091;SDS011;8661;45.700;4.880;2023-06-14T13:50:08;7.57;;;3.92;;
17091;SDS011;8661;45.700;4.880;2023-06-14T13:52:35;22.25;;;4.18;;
17091;SDS011;8661;45.700;4.880;2023-06-14T13:55:02;19.15;;;4.43;;
17091;SDS011;8661;45.700;4.880;2023-06-14T13:57:30;7.97;;;3.47;;
17091;SDS011;8661;45.700;4.880;2023-06-14T13:59:57;5.80;;;3.58;;
17091;SDS011;8661;45.700;4.880;2023-06-14T14:02:26;4.30;;;3.35;;
17091;SDS011;8661;45.700;4.880;2023-06-14T14:04:53;12.63;;;3.30;;
17091;SDS011;8661;45.700;4.880;2023-06-14T14:07:21;23.17;;;4.90;;
17091;SDS011;8661;45.700;4.880;2023-06-14T14:09:48;6.43;;;3.20;;
17091;SDS011;8661;45.700;4.880;2023-06-14T14:12:16;3.97;;;3.40;;
17091;SDS011;8661;45.700;4.880;2023-06-14T14:14:43;5.75;;;2.70;;
17091;SDS011;8661;45.700;4.880;2023-06-14T14:17:11;5.63;;;3.60;;
17091;SDS011;8661;45.700;4.880;2023-06-14T14:19:38;17.15;;;4.43;;
17091;SDS011;8661;45.700;4.880;2023-06-14T14:22:05;19.38;;;3.88;;
17091;SDS011;8661;45.700;4.880;2023-06-14T14:24:33;10.50;;;4.00;;
17091;SDS011;8661;45.700;4.880;2023-06-14T14:27:00;6.80;;;3.78;;
17091;SDS011;8661;45.700;4.880;2023-06-14T14:29:27;12.15;;;3.55;;
17091;SDS011;8661;45.700;4.880;2023-06-14T14:31:55;11.05;;;3.53;;
17091;SDS011;8661;45.700;4.880;2023-06-14T14:34:22;4.80;;;3.17;;
17091;SDS011;8661;45.700;4.880;2023-06-14T14:36:49;6.70;;;2.80;;
17091;SDS011;8661;45.700;4.880;2023-06-14T14:39:15;9.65;;;3.30;;
17091;SDS011;8661;45.700;4.880;2023-06-14T14:41:44;6.80;;;2.90;;
17091;SDS011;8661;45.700;4.880;2023-06-14T14:44:10;4.93;;;3.05;;
17091;SDS011;8661;45.700;4.880;2023-06-14T14:46:37;4.45;;;3.05;;
17091;SDS011;8661;45.700;4.880;2023-06-14T14:49:04;5.45;;;3.08;;
17091;SDS011;8661;45.700;4.880;2023-06-14T14:51:31;8.23;;;3.40;;
17091;SDS011;8661;45.700;4.880;2023-06-14T14:53:58;12.10;;;3.20;;
17091;SDS011;8661;45.700;4.880;2023-06-14T14:56:25;10.45;;;2.80;;
17091;SDS011;8661;45.700;4.880;2023-06-14T14:58:53;5.40;;;2.80;;
17091;SDS011;8661;45.700;4.880;2023-06-14T15:01:20;10.05;;;2.85;;
17091;SDS011;8661;45.700;4.880;2023-06-14T15:03:47;5.22;;;2.47;;
17091;SDS011;8661;45.700;4.880;2023-06-14T15:06:14;4.10;;;3.08;;
17091;SDS011;8661;45.700;4.880;2023-06-14T15:08:42;3.67;;;2.65;;